METAR Data
IDs: Format: Raw Decoded Include TAF

Data at: 1953 UTC 17 Nov 2019

KSGF 171852Z 26009KT 10SM FEW070 OVC110 09/M01 A2995 RMK AO2 SLP144 T00941006
KSGF 171752Z 26008KT 9SM OVC085 09/M01 A2997 RMK AO2 SLP152 T00891011 10089 20044 58018
KSGF 171652Z 21006KT 10SM OVC100 08/01 A3000 RMK AO2 SLP162 T00780006
KSGF 171552Z 18008KT 10SM FEW120 07/00 A3002 RMK AO2 SLP169 T00670000
KSGF 171452Z 17006KT 10SM CLR 06/M01 A3002 RMK AO2 SLP171 T00561006 50002
KSGF 171352Z 19006KT 10SM CLR 04/M01 A3004 RMK AO2 SLP176 T00441006
KSGF 171252Z 18008KT 10SM CLR 04/M01 A3003 RMK AO2 SLP174 T00441011
KSGF 171152Z 16005KT 10SM CLR 04/M01 A3002 RMK AO2 SLP170 T00441011 10067 20044 58012
KSGF 171052Z 16010KT 10SM CLR 05/M01 A3005 RMK AO2 SLP178 T00501011
KSGF 170952Z 16008KT 10SM CLR 05/M01 A3004 RMK AO2 SLP176 T00501011
KSGF 170852Z 15006KT 10SM CLR 05/M01 A3006 RMK AO2 SLP180 T00501011 58007
KSGF 170752Z 17006KT 10SM CLR 06/M01 A3007 RMK AO2 SLP185 T00561011
KSGF 170652Z 18005KT 10SM CLR 06/M01 A3008 RMK AO2 SLP187 T00611011
KSGF 170552Z 15009KT 10SM CLR 06/M01 A3008 RMK AO2 SLP187 T00611011 10072 20056 401331022 50003
KSGF 170452Z 16008KT 10SM CLR 06/M02 A3008 RMK AO2 SLP189 T00611017
KSGF 170352Z 16006KT 10SM CLR 06/M02 A3009 RMK AO2 SLP193 T00561017
KSGF 170252Z 16009KT 10SM CLR 06/M02 A3007 RMK AO2 SLP187 T00611017 58009
KSGF 170152Z 15008KT 10SM CLR 06/M02 A3008 RMK AO2 SLP192 T00611022
KSGF 170052Z 14008KT 10SM CLR 06/M03 A3010 RMK AO2 SLP199 T00611033
KSGF 162352Z 15007KT 10SM CLR 06/M04 A3010 RMK AO2 SLP199 T00611039 10133 20061 55007
KSGF 162252Z 15007KT 10SM CLR 10/M04 A3009 RMK AO2 SLP196 T01001039
KSGF 162152Z 16010KT 10SM CLR 12/M03 A3011 RMK AO2 SLP201 T01221028
KSGF 162052Z 14010KT 10SM CLR 13/M04 A3012 RMK AO2 SLP203 T01281039 56031
KSGF 161952Z 19009KT 10SM CLR 13/M03 A3015 RMK AO2 SLP214 T01281033
KSGF 161852Z 16008G16KT 10SM CLR 12/M03 A3018 RMK AO2 SLP223 T01221028
KSGF 161752Z 16008KT 10SM CLR 11/M03 A3021 RMK AO2 SLP237 T01061028 10106 21011 58020
KSGF 161652Z 16008KT 10SM CLR 09/M03 A3025 RMK AO2 SLP250 T00891028
KSGF 161552Z 18010KT 10SM CLR 07/M04 A3028 RMK AO2 SLP260 T00671039
KSGF 161452Z 16009KT 10SM CLR 04/M04 A3028 RMK AO2 SLP262 T00441044 53004
KSGF 161352Z 15007KT 10SM CLR 02/M05 A3027 RMK AO2 SLP260 T00171050
KSGF 161252Z 15007KT 10SM CLR M01/M07 A3026 RMK AO2 SLP259 T10111067
KSGF 161152Z 14008KT 10SM CLR M01/M07 A3026 RMK AO2 SLP258 T10111067 10006 21022 56002
KSGF 161052Z 15008KT 10SM CLR M01/M07 A3027 RMK AO2 SLP256 T10061067
KSGF 160952Z 15007KT 10SM CLR M02/M07 A3026 RMK AO2 SLP254 T10171072
KSGF 160852Z 15008KT 10SM CLR M01/M07 A3027 RMK AO2 SLP256 T10111072 58008